Time;durP1;ratioP1;P1;durP2;ratioP2;P2;SDS_P1;SDS_P2;PMS_P1;PMS_P2;Temp;Humidity;BMP_temperature;BMP_pressure;BME280_temperature;BME280_humidity;BME280_pressure;Samples;Min_cycle;Max_cycle;Signal;HPM_P1;HPM_P2
2022/07/06 06:49:21;;;;;;;3.97;2.47;;;14.00;99.90;;;;;;5111180;27;20538;-76
2022/07/06 06:51:46;;;;;;;4.05;2.80;;;14.00;99.90;;;;;;5111199;28;20178;-76
2022/07/06 06:54:13;;;;;;;3.83;2.38;;;14.10;99.90;;;;;;5111158;28;20520;-75
2022/07/06 06:56:39;;;;;;;5.40;2.75;;;14.30;99.90;;;;;;5111032;28;20210;-76
2022/07/06 06:59:04;;;;;;;2.65;2.45;;;14.10;99.90;;;;;;5111193;28;20164;-76
2022/07/06 07:01:32;;;;;;;4.30;2.75;;;14.10;99.90;;;;;;5110964;28;20228;-77
2022/07/06 07:03:57;;;;;;;2.75;2.40;;;14.50;99.90;;;;;;5110001;28;20652;-76
2022/07/06 07:06:28;;;;;;;3.30;2.95;;;14.10;99.90;;;;;;5110902;28;20175;-77
2022/07/06 07:08:55;;;;;;;3.38;2.70;;;14.30;99.90;;;;;;5109454;28;20297;-77
2022/07/06 07:11:20;;;;;;;3.80;2.75;;;14.40;99.90;;;;;;5126452;28;20561;-76
2022/07/06 07:13:46;;;;;;;3.35;2.67;;;14.30;99.90;;;;;;5109568;28;20258;-76
2022/07/06 07:16:11;;;;;;;2.65;2.30;;;14.40;99.90;;;;;;5109909;28;20164;-77
2022/07/06 07:18:37;;;;;;;7.40;2.70;;;14.60;99.90;;;;;;5110882;28;20168;-77
2022/07/06 07:21:03;;;;;;;2.40;2.30;;;14.60;99.90;;;;;;5110756;28;20171;-76
2022/07/06 07:23:30;;;;;;;8.48;2.40;;;14.60;99.90;;;;;;5110846;28;20171;-77
2022/07/06 07:25:55;;;;;;;6.57;2.78;;;14.80;99.90;;;;;;5110524;28;20167;-77
2022/07/06 07:28:21;;;;;;;5.72;2.80;;;14.80;99.90;;;;;;5110557;28;20241;-76
2022/07/06 07:30:46;;;;;;;4.40;2.70;;;14.90;99.90;;;;;;5109239;28;20179;-75
2022/07/06 07:33:13;;;;;;;4.55;2.45;;;15.00;99.90;;;;;;5110511;28;20683;-77
2022/07/06 07:35:39;;;;;;;3.17;2.85;;;15.00;99.90;;;;;;5109175;28;20624;-76
2022/07/06 07:38:05;;;;;;;4.65;3.80;;;14.90;99.90;;;;;;5110345;28;20171;-76
2022/07/06 07:40:30;;;;;;;2.45;2.35;;;14.90;99.90;;;;;;5110318;28;20199;-76
2022/07/06 07:42:56;;;;;;;5.97;2.65;;;15.10;99.90;;;;;;5109068;28;20184;-76
2022/07/06 07:45:22;;;;;;;2.72;2.53;;;15.30;99.90;;;;;;5110229;28;20175;-76
2022/07/06 07:47:47;;;;;;;4.00;2.42;;;15.40;99.90;;;;;;5110088;28;20249;-76
2022/07/06 07:50:13;;;;;;;2.40;2.30;;;15.40;99.90;;;;;;5108909;28;20225;-77
2022/07/06 07:52:39;;;;;;;4.38;2.50;;;15.50;99.90;;;;;;5110247;28;20564;-77
2022/07/06 07:55:05;;;;;;;6.07;2.80;;;15.40;99.90;;;;;;5110838;28;20167;-77
2022/07/06 07:57:31;;;;;;;4.47;2.60;;;15.60;99.90;;;;;;5110883;28;20652;-76
2022/07/06 07:59:56;;;;;;;3.05;2.78;;;15.80;99.90;;;;;;5101535;28;20184;-75
2022/07/06 08:02:23;;;;;;;3.92;2.50;;;15.90;99.90;;;;;;5096512;28;20174;-76
2022/07/06 08:04:49;;;;;;;3.35;2.45;;;15.90;99.90;;;;;;5096380;28;20247;-77
2022/07/06 08:07:14;;;;;;;3.28;2.38;;;16.00;99.90;;;;;;5096324;28;20283;-77
2022/07/06 08:09:40;;;;;;;2.85;2.40;;;16.10;99.90;;;;;;5096466;28;20175;-76
2022/07/06 08:12:06;;;;;;;4.28;2.13;;;16.10;99.90;;;;;;5094960;28;20191;-77
2022/07/06 08:14:31;;;;;;;8.77;2.33;;;16.00;99.90;;;;;;5096057;28;20252;-77
2022/07/06 08:16:57;;;;;;;5.13;2.10;;;16.10;99.90;;;;;;5096262;28;20172;-76
2022/07/06 08:19:23;;;;;;;4.57;2.08;;;16.20;99.90;;;;;;5096079;28;20172;-77
2022/07/06 08:21:49;;;;;;;3.95;2.20;;;16.20;99.90;;;;;;5095023;28;20176;-77
2022/07/06 08:24:16;;;;;;;5.07;2.15;;;16.00;99.90;;;;;;5096119;28;20660;-76
2022/07/06 08:26:41;;;;;;;4.00;1.70;;;16.00;99.90;;;;;;5094614;28;20578;-77
2022/07/06 08:29:07;;;;;;;3.53;2.38;;;16.00;99.90;;;;;;5095727;28;20199;-77
2022/07/06 08:31:34;;;;;;;2.60;1.85;;;16.00;99.90;;;;;;5095654;28;20263;-77
2022/07/06 08:34:00;;;;;;;5.80;1.90;;;15.90;99.90;;;;;;5095860;28;20589;-76
2022/07/06 08:36:26;;;;;;;4.28;1.63;;;15.90;99.90;;;;;;5095634;28;20243;-76
2022/07/06 08:38:52;;;;;;;5.10;1.55;;;15.80;99.90;;;;;;5095635;28;20248;-76
2022/07/06 08:41:20;;;;;;;1.95;1.60;;;15.90;99.90;;;;;;5095469;28;20313;-77
2022/07/06 08:43:46;;;;;;;2.65;1.52;;;15.90;99.90;;;;;;5095412;28;20502;-77
2022/07/06 08:46:14;;;;;;;3.80;1.40;;;15.90;99.90;;;;;;5095386;28;20183;-77
2022/07/06 08:48:40;;;;;;;1.27;1.17;;;15.90;99.90;;;;;;5095100;28;20219;-76
2022/07/06 08:51:06;;;;;;;1.40;1.30;;;15.90;99.90;;;;;;5095112;28;20179;-76
2022/07/06 08:53:32;;;;;;;1.50;1.35;;;15.80;99.90;;;;;;5095239;28;20494;-77
2022/07/06 08:55:58;;;;;;;4.40;1.67;;;15.90;99.90;;;;;;5095203;28;20160;-77
2022/07/06 08:58:25;;;;;;;3.35;1.40;;;15.90;99.90;;;;;;5095105;28;20245;-77
2022/07/06 09:00:52;;;;;;;2.38;2.08;;;16.00;99.90;;;;;;5093766;28;20171;-77
2022/07/06 09:03:19;;;;;;;3.17;1.55;;;16.10;99.90;;;;;;5095090;28;20164;-77
2022/07/06 09:05:46;;;;;;;1.60;1.50;;;16.10;99.90;;;;;;5095373;28;20171;-77
2022/07/06 09:08:12;;;;;;;3.22;1.40;;;16.10;99.90;;;;;;5093566;28;20603;-77
2022/07/06 09:10:38;;;;;;;2.70;1.55;;;16.10;99.90;;;;;;5094090;28;20191;-77
2022/07/06 09:13:05;;;;;;;1.38;1.25;;;16.20;99.90;;;;;;5094534;28;20669;-77
2022/07/06 09:15:33;;;;;;;2.40;1.10;;;16.30;99.90;;;;;;5094819;28;20632;-77
2022/07/06 09:17:59;;;;;;;5.25;1.00;;;16.40;99.90;;;;;;5094808;28;20273;-77
2022/07/06 09:20:25;;;;;;;1.08;1.08;;;16.50;99.90;;;;;;5093387;28;20240;-78
2022/07/06 09:22:53;;;;;;;1.58;1.10;;;16.50;99.90;;;;;;5094625;28;20254;-77
2022/07/06 09:25:19;;;;;;;0.98;0.98;;;16.60;99.90;;;;;;5093292;28;20179;-77
2022/07/06 09:27:54;;;;;;;2.17;0.90;;;16.70;99.90;;;;;;5094493;28;20210;-78
2022/07/06 09:30:20;;;;;;;1.77;1.10;;;16.70;99.90;;;;;;5094488;28;20159;-77
2022/07/06 09:32:54;;;;;;;3.03;1.20;;;16.80;99.90;;;;;;5093216;28;20628;-78
2022/07/06 09:35:21;;;;;;;1.30;1.20;;;16.90;99.90;;;;;;5094495;28;20221;-77
2022/07/06 09:37:59;;;;;;;1.88;1.35;;;17.00;99.90;;;;;;5093106;28;20178;-77
2022/07/06 09:40:24;;;;;;;1.63;1.33;;;17.10;99.90;;;;;;5094351;28;20175;-77
2022/07/06 09:42:50;;;;;;;0.95;0.90;;;17.20;99.90;;;;;;5094268;28;20636;-77
2022/07/06 09:45:20;;;;;;;1.00;1.00;;;17.10;99.90;;;;;;5094262;28;20179;-77
2022/07/06 09:47:48;;;;;;;1.60;1.25;;;17.10;99.90;;;;;;5094010;28;20211;-78
2022/07/06 09:50:17;;;;;;;1.70;1.10;;;17.40;99.90;;;;;;5093005;28;20254;-78
2022/07/06 09:52:55;;;;;;;2.80;1.30;;;17.50;99.90;;;;;;5094300;28;20203;-77
2022/07/06 09:55:22;;;;;;;1.70;1.60;;;18.40;99.90;;;;;;5094698;28;20187;-78
2022/07/06 09:57:57;;;;;;;3.75;1.75;;;18.10;99.90;;;;;;5094328;28;20166;-78
2022/07/06 10:00:23;;;;;;;2.25;1.70;;;18.30;99.90;;;;;;5094314;28;20159;-77
2022/07/06 10:02:49;;;;;;;1.67;1.58;;;19.30;99.90;;;;;;5092973;28;20703;-77
2022/07/06 10:05:17;;;;;;;4.00;1.50;;;18.50;99.90;;;;;;5094279;28;20198;-77
2022/07/06 10:07:45;;;;;;;3.05;1.55;;;18.50;99.90;;;;;;5094165;28;20187;-78
2022/07/06 10:10:11;;;;;;;2.60;2.00;;;19.40;99.90;;;;;;5094119;28;20620;-78
2022/07/06 10:12:39;;;;;;;17.55;1.73;;;18.70;99.90;;;;;;5093941;28;20324;-77
2022/07/06 10:15:05;;;;;;;2.17;1.30;;;18.80;99.90;;;;;;5092924;28;20250;-78
2022/07/06 10:17:31;;;;;;;1.75;1.23;;;18.40;99.90;;;;;;5094230;28;20202;-78
2022/07/06 10:19:57;;;;;;;1.45;1.40;;;18.20;99.90;;;;;;5093045;28;20636;-77
2022/07/06 10:22:23;;;;;;;1.40;1.30;;;18.00;99.90;;;;;;5093894;28;20178;-77
2022/07/06 10:24:50;;;;;;;8.32;1.70;;;18.00;99.90;;;;;;5094221;28;20164;-78
2022/07/06 10:27:16;;;;;;;1.65;1.55;;;18.00;99.90;;;;;;5093659;28;20168;-78
2022/07/06 10:29:42;;;;;;;1.88;1.50;;;18.20;99.90;;;;;;5093456;28;20167;-78
2022/07/06 10:32:08;;;;;;;2.25;1.40;;;18.40;99.90;;;;;;5093498;28;20170;-78
2022/07/06 10:34:36;;;;;;;4.05;2.05;;;18.70;99.90;;;;;;5092149;28;20262;-78
2022/07/06 10:37:02;;;;;;;2.05;1.63;;;18.70;99.90;;;;;;5093441;28;20163;-78
2022/07/06 10:42:49;;;;;;;1.52;1.42;;;18.80;99.90;;;;;;5093950;28;20250;-78
2022/07/06 10:45:21;;;;;;;2.92;2.00;;;18.60;99.90;;;;;;5092068;28;20164;-77
2022/07/06 10:47:46;;;;;;;1.85;1.50;;;18.50;99.90;;;;;;5092964;28;20309;-77
2022/07/06 10:50:13;;;;;;;2.28;1.60;;;18.30;99.90;;;;;;5093318;28;20352;-78
2022/07/06 10:53:11;;;;;;;1.70;1.60;;;18.20;99.90;;;;;;5093213;28;20221;-77
2022/07/06 10:55:39;;;;;;;2.10;1.80;;;18.20;99.90;;;;;;5088975;28;20233;-78
2022/07/06 10:58:06;;;;;;;4.15;2.70;;;18.20;99.90;;;;;;5093276;28;20168;-78
2022/07/06 11:00:55;;;;;;;5.60;1.80;;;18.30;99.90;;;;;;5093222;28;20203;-78
2022/07/06 11:03:41;;;;;;;6.47;1.80;;;18.50;99.90;;;;;;5092662;28;20179;-78
2022/07/06 11:06:20;;;;;;;1.70;1.60;;;18.90;99.90;;;;;;5091950;28;20167;-78
2022/07/06 11:08:47;;;;;;;3.15;2.10;;;19.10;99.90;;;;;;5093064;28;20563;-78
2022/07/06 11:11:17;;;;;;;2.42;2.22;;;19.00;99.90;;;;;;5092920;28;20167;-78
2022/07/06 11:13:47;;;;;;;1.70;1.70;;;18.80;99.90;;;;;;5091759;28;20163;-78
2022/07/06 11:16:14;;;;;;;2.63;1.73;;;18.80;99.90;;;;;;5093046;28;20262;-78
2022/07/06 11:18:45;;;;;;;2.05;1.85;;;19.20;99.90;;;;;;5091789;28;20224;-78
2022/07/06 11:21:19;;;;;;;1.80;1.80;;;19.50;99.90;;;;;;5093064;28;20174;-78
2022/07/06 11:23:49;;;;;;;6.20;1.58;;;19.60;99.90;;;;;;5092866;28;20574;-78
2022/07/06 11:26:16;;;;;;;3.25;1.38;;;19.80;99.90;;;;;;5091642;28;20584;-79
2022/07/06 11:28:45;;;;;;;1.77;1.67;;;19.80;99.90;;;;;;5092897;28;20206;-78
2022/07/06 11:31:11;;;;;;;1.52;1.42;;;19.50;99.90;;;;;;5092950;28;20166;-78
2022/07/06 11:33:36;;;;;;;2.55;1.50;;;19.20;99.90;;;;;;5092888;28;20167;-78
2022/07/06 11:36:20;;;;;;;1.48;1.40;;;19.00;99.90;;;;;;5096413;28;20191;-78
2022/07/06 11:38:47;;;;;;;1.52;1.42;;;18.90;99.90;;;;;;5096752;28;20651;-78
2022/07/06 11:41:14;;;;;;;1.38;1.30;;;19.00;99.90;;;;;;5095373;28;20189;-78
2022/07/06 11:43:47;;;;;;;2.03;1.83;;;19.40;99.90;;;;;;5096591;28;20217;-78
2022/07/06 11:46:18;;;;;;;1.73;1.63;;;19.40;99.90;;;;;;5096612;28;20171;-78
2022/07/06 11:48:49;;;;;;;1.65;1.55;;;19.40;99.90;;;;;;5094846;28;20227;-78
2022/07/06 11:51:15;;;;;;;2.50;1.60;;;19.20;99.90;;;;;;5096383;28;20174;-78
2022/07/06 11:53:46;;;;;;;2.17;1.73;;;19.20;99.90;;;;;;5095108;28;20171;-78
2022/07/06 11:56:13;;;;;;;2.20;1.52;;;19.30;99.90;;;;;;5095280;28;20319;-79
2022/07/06 11:58:40;;;;;;;1.17;1.17;;;19.50;99.90;;;;;;5095065;28;20175;-78
2022/07/06 12:01:08;;;;;;;1.20;1.20;;;19.70;99.90;;;;;;5094992;28;20167;-78
2022/07/06 12:03:34;;;;;;;1.55;1.40;;;19.80;99.90;;;;;;5096157;28;20710;-79
2022/07/06 12:06:14;;;;;;;2.58;2.03;;;19.70;99.90;;;;;;5096192;28;20178;-79
2022/07/06 12:08:51;;;;;;;3.72;1.60;;;19.50;99.90;;;;;;5096107;28;20202;-79
2022/07/06 12:11:28;;;;;;;2.97;1.70;;;19.40;99.90;;;;;;5095000;28;20163;-79
2022/07/06 12:14:00;;;;;;;1.80;1.70;;;19.10;99.90;;;;;;5094703;28;20171;-78
2022/07/06 12:16:36;;;;;;;4.00;1.88;;;18.90;99.90;;;;;;5095979;28;20159;-79
2022/07/06 12:19:04;;;;;;;2.80;2.28;;;18.70;99.90;;;;;;5096127;28;20166;-79
2022/07/06 12:21:30;;;;;;;3.17;2.65;;;18.60;99.90;;;;;;5094592;28;20186;-79
2022/07/06 12:23:56;;;;;;;3.40;3.10;;;18.60;99.90;;;;;;5095797;28;20180;-78
2022/07/06 12:26:25;;;;;;;3.25;2.72;;;18.70;99.90;;;;;;5094513;28;20171;-79
2022/07/06 12:29:07;;;;;;;2.30;2.10;;;18.80;99.90;;;;;;5094530;28;20203;-79
2022/07/06 12:31:42;;;;;;;3.90;2.40;;;18.90;99.90;;;;;;5095830;28;20191;-79
2022/07/06 12:34:26;;;;;;;2.47;2.13;;;19.00;99.90;;;;;;5094631;28;20534;-77
2022/07/06 12:36:55;;;;;;;1.90;1.80;;;19.10;99.90;;;;;;5095479;28;20221;-77
2022/07/06 12:39:23;;;;;;;2.78;1.92;;;19.20;99.90;;;;;;5095540;28;20163;-77
2022/07/06 12:41:51;;;;;;;4.00;1.90;;;19.40;99.90;;;;;;5095622;28;20212;-77
2022/07/06 12:44:19;;;;;;;1.88;1.60;;;19.50;99.90;;;;;;5095559;28;20163;-77
2022/07/06 12:46:45;;;;;;;2.35;1.60;;;19.80;99.90;;;;;;5095341;28;20171;-77
2022/07/06 12:49:22;;;;;;;2.88;1.60;;;19.90;99.90;;;;;;5095198;28;20272;-79
2022/07/06 12:52:08;;;;;;;4.43;1.55;;;19.90;99.90;;;;;;5095468;28;20216;-79
2022/07/06 12:54:54;;;;;;;1.80;1.40;;;19.90;99.90;;;;;;5095425;28;20206;-77
2022/07/06 12:57:21;;;;;;;2.88;1.50;;;20.00;99.90;;;;;;5095154;28;20182;-77
2022/07/06 12:59:54;;;;;;;2.28;1.50;;;20.20;99.90;;;;;;5095161;28;20612;-77
2022/07/06 13:02:29;;;;;;;1.38;1.23;;;20.40;99.90;;;;;;5093927;28;20195;-77
2022/07/06 13:04:59;;;;;;;3.67;1.23;;;20.40;99.90;;;;;;5095119;28;20173;-79
2022/07/06 13:07:26;;;;;;;1.73;1.40;;;20.30;99.90;;;;;;5094885;28;20166;-77
2022/07/06 13:09:53;;;;;;;1.30;1.20;;;20.50;99.90;;;;;;5095055;28;20171;-77
2022/07/06 13:12:19;;;;;;;1.20;1.20;;;20.80;99.90;;;;;;5094842;28;20182;-77
2022/07/06 13:14:44;;;;;;;1.60;1.10;;;20.90;99.90;;;;;;5094911;28;20296;-78
2022/07/06 13:17:10;;;;;;;1.65;1.55;;;21.10;99.90;;;;;;5094907;28;20626;-78
2022/07/06 13:19:35;;;;;;;3.83;1.33;;;21.00;99.90;;;;;;5094841;28;20521;-71
2022/07/06 13:22:01;;;;;;;1.50;1.38;;;20.80;99.90;;;;;;5094815;28;20173;-74
2022/07/06 13:24:28;;;;;;;3.25;1.10;;;20.60;99.90;;;;;;5093121;28;20163;-74
2022/07/06 13:26:54;;;;;;;3.53;1.50;;;20.60;99.90;;;;;;5094659;28;20167;-72
2022/07/06 13:29:19;;;;;;;1.50;1.40;;;20.60;99.90;;;;;;5094447;28;20209;-76
2022/07/06 13:31:45;;;;;;;1.40;1.30;;;20.50;99.90;;;;;;5094607;28;20167;-76
2022/07/06 13:34:20;;;;;;;1.95;1.40;;;20.30;99.90;;;;;;5094638;28;20514;-74
2022/07/06 13:36:46;;;;;;;1.98;1.50;;;20.30;99.90;;;;;;5094525;28;20166;-72
2022/07/06 13:39:11;;;;;;;4.63;1.48;;;20.00;99.90;;;;;;5094236;28;20217;-74
2022/07/06 13:41:37;;;;;;;2.55;1.58;;;19.90;99.90;;;;;;5094440;28;20197;-73
2022/07/06 13:44:03;;;;;;;2.42;1.10;;;19.90;99.90;;;;;;5093144;28;20171;-76
2022/07/06 13:46:30;;;;;;;1.67;1.58;;;20.20;99.90;;;;;;5094364;28;20159;-77
2022/07/06 13:48:57;;;;;;;2.10;1.20;;;20.50;99.90;;;;;;5094041;28;20294;-75
2022/07/06 13:51:29;;;;;;;2.80;1.42;;;20.70;99.90;;;;;;5094285;28;20170;-74
2022/07/06 13:53:54;;;;;;;1.67;1.30;;;20.50;99.90;;;;;;5094100;28;20782;-71
2022/07/06 13:56:20;;;;;;;1.88;1.35;;;20.50;99.90;;;;;;5093119;28;20187;-71
2022/07/06 13:58:46;;;;;;;1.98;1.00;;;20.60;99.90;;;;;;5092281;28;20652;-74
2022/07/06 14:01:12;;;;;;;1.77;1.38;;;20.40;99.90;;;;;;5094070;28;20159;-73
2022/07/06 14:03:38;;;;;;;2.15;1.27;;;20.60;99.90;;;;;;5094033;28;20167;-72
2022/07/06 14:06:08;;;;;;;1.90;1.58;;;20.50;99.90;;;;;;5093961;28;20252;-75
2022/07/06 14:08:35;;;;;;;1.20;1.20;;;20.80;99.90;;;;;;5092584;28;20332;-72
2022/07/06 14:11:01;;;;;;;1.45;1.23;;;21.30;99.90;;;;;;5094112;28;20167;-73
2022/07/06 14:13:27;;;;;;;1.65;0.82;;;21.40;99.90;;;;;;5093816;28;20738;-70
2022/07/06 14:15:53;;;;;;;1.20;1.13;;;21.40;99.90;;;;;;5093786;28;20191;-70
2022/07/06 14:18:19;;;;;;;2.53;1.70;;;21.60;99.90;;;;;;5092235;28;20636;-70
2022/07/06 14:20:46;;;;;;;6.15;1.30;;;21.50;99.90;;;;;;5092424;28;20178;-69
2022/07/06 14:23:13;;;;;;;2.28;1.58;;;21.30;99.90;;;;;;5093718;28;20195;-70
2022/07/06 14:25:39;;;;;;;1.95;1.33;;;21.00;99.90;;;;;;5093584;28;20167;-69
2022/07/06 14:28:06;;;;;;;1.45;1.35;;;20.80;99.90;;;;;;5093507;28;20282;-69
2022/07/06 14:30:36;;;;;;;4.97;1.38;;;20.90;99.90;;;;;;5092411;28;20167;-69
2022/07/06 14:33:06;;;;;;;3.03;1.10;;;21.00;99.90;;;;;;5093589;28;20155;-70
2022/07/06 14:35:36;;;;;;;1.20;1.10;;;21.30;99.90;;;;;;5093425;28;20624;-70
2022/07/06 14:38:03;;;;;;;1.48;1.20;;;21.90;99.90;;;;;;5093601;28;20173;-70
2022/07/06 14:40:29;;;;;;;1.10;1.10;;;22.50;99.90;;;;;;5093536;28;20255;-70
2022/07/06 14:42:55;;;;;;;4.20;1.58;;;22.80;99.90;;;;;;5093506;28;20167;-72
2022/07/06 14:45:20;;;;;;;2.60;1.05;;;22.40;99.90;;;;;;5093346;28;20215;-72
2022/07/06 14:47:46;;;;;;;2.08;1.30;;;22.00;99.90;;;;;;5093093;28;20363;-72
2022/07/06 14:50:11;;;;;;;1.05;0.90;;;21.80;99.90;;;;;;5092115;28;20181;-71
2022/07/06 14:52:37;;;;;;;2.70;1.30;;;21.70;99.90;;;;;;5093465;28;20167;-74
2022/07/06 14:55:04;;;;;;;3.88;1.40;;;21.60;99.90;;;;;;5092032;28;20198;-74
2022/07/06 14:57:29;;;;;;;1.00;1.00;;;21.40;99.90;;;;;;5092077;28;20175;-75
2022/07/06 14:59:55;;;;;;;3.33;1.27;;;21.30;99.90;;;;;;5093344;28;20167;-75
2022/07/06 15:02:20;;;;;;;1.35;1.13;;;21.00;99.90;;;;;;5093216;28;20167;-75
2022/07/06 15:04:46;;;;;;;3.03;1.00;;;21.10;99.90;;;;;;5093307;28;20648;-75
2022/07/06 15:07:12;;;;;;;1.38;1.13;;;21.30;99.90;;;;;;5093441;28;20171;-78
2022/07/06 15:09:37;;;;;;;2.45;1.13;;;21.30;99.90;;;;;;5094588;28;20206;-79
2022/07/06 15:12:03;;;;;;;1.55;1.25;;;21.20;99.90;;;;;;5097273;28;20678;-74
2022/07/06 15:14:29;;;;;;;1.08;1.00;;;20.90;99.90;;;;;;5097335;28;20666;-74
2022/07/06 15:16:55;;;;;;;2.78;1.20;;;21.20;99.90;;;;;;5095988;28;20639;-78
2022/07/06 15:19:20;;;;;;;4.25;1.23;;;21.20;99.90;;;;;;5097136;28;20621;-74
2022/07/06 15:21:46;;;;;;;1.58;1.20;;;21.30;99.90;;;;;;5097175;28;20212;-73
2022/07/06 15:24:12;;;;;;;6.15;1.40;;;21.60;99.90;;;;;;5097060;28;20164;-70
2022/07/06 15:26:37;;;;;;;2.80;1.40;;;21.60;99.90;;;;;;5097059;28;20167;-70
2022/07/06 15:29:03;;;;;;;1.77;1.35;;;21.50;99.90;;;;;;5096914;28;20327;-72
2022/07/06 15:31:31;;;;;;;1.52;1.23;;;21.30;99.90;;;;;;5096921;28;20244;-73
2022/07/06 15:33:57;;;;;;;8.60;1.75;;;21.90;99.90;;;;;;5095584;28;20214;-74
2022/07/06 15:36:23;;;;;;;1.30;1.13;;;22.40;99.90;;;;;;5096843;28;20170;-75
2022/07/06 15:38:49;;;;;;;2.70;1.10;;;22.70;99.90;;;;;;5096795;28;20176;-74
2022/07/06 15:41:15;;;;;;;2.80;1.63;;;22.70;99.90;;;;;;5095573;28;20624;-74
2022/07/06 15:43:40;;;;;;;1.75;0.93;;;22.40;99.90;;;;;;5095360;28;20167;-72
2022/07/06 15:46:06;;;;;;;4.82;1.30;;;22.10;99.90;;;;;;5096921;28;20217;-73
2022/07/06 15:48:32;;;;;;;1.77;1.30;;;21.90;99.90;;;;;;5096393;28;20271;-73
2022/07/06 15:50:59;;;;;;;3.85;1.30;;;21.60;99.90;;;;;;5096627;28;20561;-73
2022/07/06 15:53:25;;;;;;;5.82;1.30;;;21.50;99.90;;;;;;5096472;28;20258;-83
2022/07/06 15:55:50;;;;;;;1.20;1.10;;;21.40;99.90;;;;;;5096546;28;20607;-75
2022/07/06 15:58:16;;;;;;;2.97;2.13;;;21.10;99.90;;;;;;5096413;28;20167;-75
2022/07/06 16:00:42;;;;;;;1.23;0.98;;;20.90;99.90;;;;;;5096349;28;20171;-73
2022/07/06 16:03:08;;;;;;;3.70;1.35;;;20.70;99.90;;;;;;5096318;28;20167;-74
2022/07/06 16:05:34;;;;;;;2.97;1.30;;;20.60;99.90;;;;;;5096267;28;20183;-73
2022/07/06 16:07:59;;;;;;;2.90;1.20;;;20.50;99.90;;;;;;5096165;28;20703;-78
2022/07/06 16:10:25;;;;;;;1.30;1.20;;;20.70;99.90;;;;;;5094881;28;20174;-77
2022/07/06 16:12:54;;;;;;;2.17;1.30;;;21.10;99.90;;;;;;5096092;28;20194;-74
2022/07/06 16:15:19;;;;;;;3.33;1.30;;;21.10;99.90;;;;;;5094786;28;20249;-75
2022/07/06 16:17:45;;;;;;;5.80;1.25;;;21.30;99.90;;;;;;5096057;28;20262;-72
2022/07/06 16:20:13;;;;;;;1.45;1.40;;;21.70;99.90;;;;;;5095531;28;20171;-71
2022/07/06 16:22:40;;;;;;;3.33;1.30;;;21.80;99.90;;;;;;5095986;28;20174;-72
2022/07/06 16:25:05;;;;;;;2.83;1.02;;;22.10;99.90;;;;;;5095749;28;20171;-78
2022/07/06 16:27:31;;;;;;;1.02;1.00;;;21.90;99.90;;;;;;5093722;28;20185;-77
2022/07/06 16:29:57;;;;;;;1.10;1.00;;;21.60;99.90;;;;;;5095576;28;20167;-79
2022/07/06 16:32:23;;;;;;;2.35;1.25;;;21.40;99.90;;;;;;5095706;28;20187;-78
2022/07/06 16:34:48;;;;;;;3.22;1.30;;;21.70;99.90;;;;;;5095744;28;20567;-80
2022/07/06 16:37:14;;;;;;;1.40;1.05;;;22.20;99.90;;;;;;5095694;28;20170;-80
2022/07/06 16:39:41;;;;;;;5.07;1.10;;;22.60;99.90;;;;;;5096046;28;20171;-87
2022/07/06 16:42:07;;;;;;;2.45;1.05;;;23.30;99.90;;;;;;5094534;28;20630;-88
2022/07/06 16:44:32;;;;;;;3.22;1.40;;;23.90;99.90;;;;;;5095848;28;20262;-88
2022/07/06 16:46:58;;;;;;;3.65;1.63;;;24.30;99.90;;;;;;5095502;28;20163;-88
2022/07/06 16:49:23;;;;;;;1.65;1.20;;;24.10;99.90;;;;;;5094278;28;20206;-88
2022/07/06 16:51:49;;;;;;;1.13;1.00;;;23.70;99.90;;;;;;5095552;28;20613;-86
2022/07/06 16:54:15;;;;;;;1.55;1.00;;;23.80;99.90;;;;;;5095376;28;20174;-86
2022/07/06 16:56:40;;;;;;;1.30;1.20;;;24.00;99.90;;;;;;5095491;28;20190;-86
2022/07/06 16:59:06;;;;;;;3.33;1.15;;;24.60;99.90;;;;;;5095341;28;20224;-89
2022/07/06 17:01:31;;;;;;;2.80;1.00;;;24.70;99.90;;;;;;5094142;28;20235;-87
2022/07/06 17:03:57;;;;;;;2.25;1.75;;;24.10;99.90;;;;;;5095299;28;20528;-85
2022/07/06 17:06:23;;;;;;;1.92;1.83;;;23.20;99.90;;;;;;5095216;28;20160;-87
2022/07/06 17:08:49;;;;;;;1.13;1.10;;;22.20;99.90;;;;;;5095118;28;20238;-87
2022/07/06 17:11:15;;;;;;;1.25;1.17;;;21.70;99.90;;;;;;5094085;28;20244;-87
2022/07/06 17:13:40;;;;;;;2.25;1.33;;;21.80;99.90;;;;;;5093729;28;20179;-86
2022/07/06 17:16:06;;;;;;;2.15;1.15;;;21.80;99.90;;;;;;5094953;28;20163;-87
2022/07/06 17:18:35;;;;;;;1.63;1.20;;;21.90;99.90;;;;;;5094594;28;20174;-87
2022/07/06 17:21:01;;;;;;;3.17;1.20;;;21.60;99.90;;;;;;5094944;28;20173;-87
2022/07/06 17:23:26;;;;;;;1.40;1.13;;;21.20;99.90;;;;;;5094785;28;20258;-86
2022/07/06 17:25:56;;;;;;;2.42;1.13;;;21.30;99.90;;;;;;5094994;28;20253;-88
2022/07/06 17:28:37;;;;;;;1.30;1.10;;;21.50;99.90;;;;;;5094559;28;20206;-86
2022/07/06 17:31:03;;;;;;;1.70;1.35;;;21.70;99.90;;;;;;5093589;28;20194;-87
2022/07/06 17:33:28;;;;;;;2.10;1.10;;;21.30;99.90;;;;;;5093923;28;20249;-87
2022/07/06 17:35:54;;;;;;;1.65;1.25;;;21.00;99.90;;;;;;5094836;28;20184;-87
2022/07/06 17:38:20;;;;;;;1.20;1.15;;;20.70;99.90;;;;;;5094711;28;20178;-86
2022/07/06 17:40:45;;;;;;;1.20;1.20;;;20.50;99.90;;;;;;5094667;28;20175;-87
2022/07/06 17:43:12;;;;;;;1.92;1.45;;;20.40;99.90;;;;;;5094857;28;20526;-88
2022/07/06 17:45:38;;;;;;;1.33;1.33;;;20.20;99.90;;;;;;5094352;28;20183;-86
2022/07/06 17:48:04;;;;;;;4.57;1.40;;;20.00;99.90;;;;;;5094117;28;20215;-87
2022/07/06 17:50:29;;;;;;;1.15;1.05;;;19.90;99.90;;;;;;5093342;28;20167;-86
2022/07/06 17:52:55;;;;;;;2.97;1.98;;;19.80;99.90;;;;;;5094344;28;20246;-86
2022/07/06 17:55:21;;;;;;;2.88;1.35;;;19.60;99.90;;;;;;5092947;28;20174;-86
2022/07/06 17:57:46;;;;;;;2.80;1.10;;;19.60;99.90;;;;;;5094301;28;20699;-86
2022/07/06 18:00:12;;;;;;;1.35;1.25;;;19.60;99.90;;;;;;5094202;28;20163;-87
2022/07/06 18:02:38;;;;;;;2.13;1.30;;;19.50;99.90;;;;;;5094147;28;20244;-86
2022/07/06 18:05:04;;;;;;;5.40;2.03;;;19.40;99.90;;;;;;5093989;28;20206;-86
2022/07/06 18:07:30;;;;;;;3.78;1.35;;;19.20;99.90;;;;;;5093955;28;20198;-86
2022/07/06 18:09:56;;;;;;;1.88;1.30;;;19.10;99.90;;;;;;5093976;28;20627;-87
2022/07/06 18:12:22;;;;;;;3.60;1.70;;;18.90;99.90;;;;;;5094028;28;20167;-87
2022/07/06 18:14:48;;;;;;;1.17;1.17;;;18.90;99.90;;;;;;5092712;28;20167;-87
2022/07/06 18:17:15;;;;;;;6.57;1.38;;;18.90;99.90;;;;;;5093879;28;20180;-86
2022/07/06 18:19:41;;;;;;;3.70;1.30;;;18.80;99.90;;;;;;5093908;28;20252;-87
2022/07/06 18:22:07;;;;;;;1.70;1.33;;;18.80;99.90;;;;;;5093816;28;20190;-87
